createdAt,value
2018-11-04T00:02:02.376Z,8.87
2018-11-04T00:04:31.492Z,5.67
2018-11-04T00:06:59.779Z,8.63
2018-11-04T00:09:28.254Z,7.83
2018-11-04T00:11:57.278Z,7.80
2018-11-04T00:14:25.678Z,10.13
2018-11-04T00:16:54.448Z,7.00
2018-11-04T00:19:23.384Z,8.40
2018-11-04T00:21:51.720Z,8.63
2018-11-04T00:24:20.506Z,8.57
2018-11-04T00:26:49.267Z,13.10
2018-11-04T00:29:17.781Z,15.60
2018-11-04T00:31:47.171Z,15.63
2018-11-04T00:34:16.179Z,10.23
2018-11-04T00:36:44.496Z,13.20
2018-11-04T00:39:13.375Z,21.20
2018-11-04T00:41:41.993Z,19.17
2018-11-04T00:44:10.385Z,15.20
2018-11-04T00:46:39.265Z,6.37
2018-11-04T00:49:07.742Z,13.30
2018-11-04T00:51:36.346Z,8.40
2018-11-04T00:54:05.335Z,13.17
2018-11-04T00:56:34.147Z,24.93
2018-11-04T00:59:02.493Z,8.83
2018-11-04T01:01:31.050Z,9.00
2018-11-04T01:03:59.558Z,6.50
2018-11-04T01:06:27.880Z,23.00
2018-11-04T01:08:56.864Z,11.20
2018-11-04T01:11:25.512Z,10.57
2018-11-04T01:13:53.892Z,7.30
2018-11-04T01:16:22.962Z,10.93
2018-11-04T01:18:51.818Z,9.47
2018-11-04T01:21:20.439Z,12.53
2018-11-04T01:23:49.419Z,9.33
2018-11-04T01:26:18.192Z,13.10
2018-11-04T01:28:46.725Z,8.73
2018-11-04T01:31:15.605Z,6.53
2018-11-04T01:33:44.567Z,8.23
2018-11-04T01:36:12.909Z,10.33
2018-11-04T01:38:41.508Z,20.47
2018-11-04T01:41:10.113Z,12.20
2018-11-04T01:43:38.446Z,9.27
2018-11-04T01:46:06.963Z,13.13
2018-11-04T01:48:35.566Z,10.40
2018-11-04T01:51:03.897Z,12.40
2018-11-04T01:53:32.694Z,9.80
2018-11-04T01:56:01.470Z,10.77
2018-11-04T01:58:29.825Z,10.07
2018-11-04T02:00:58.595Z,16.77
2018-11-04T02:03:27.558Z,14.40
2018-11-04T02:05:55.918Z,11.00
2018-11-04T02:08:24.803Z,25.00
2018-11-04T02:10:53.920Z,10.87
2018-11-04T02:13:22.209Z,16.00
2018-11-04T02:15:51.006Z,9.50
2018-11-04T02:18:19.976Z,11.47
2018-11-04T02:20:48.276Z,9.33
2018-11-04T02:23:17.328Z,8.07
2018-11-04T02:25:46.110Z,24.03
2018-11-04T02:28:14.432Z,11.20
2018-11-04T02:30:42.981Z,14.73
2018-11-04T02:33:11.801Z,13.20
2018-11-04T02:35:40.123Z,16.30
2018-11-04T02:38:09.173Z,5.97
2018-11-04T02:40:37.964Z,4.10
2018-11-04T02:43:06.341Z,8.87
2018-11-04T02:45:35.536Z,15.10
2018-11-04T02:48:04.195Z,13.07
2018-11-04T02:50:32.571Z,10.47
2018-11-04T02:53:01.285Z,13.97
2018-11-04T02:55:30.048Z,15.60
2018-11-04T02:57:58.536Z,6.43
2018-11-04T03:00:27.334Z,12.00
2018-11-04T03:02:56.424Z,7.73
2018-11-04T03:05:24.824Z,14.70
2018-11-04T03:07:53.699Z,10.67
2018-11-04T03:10:22.469Z,11.37
2018-11-04T03:12:51.283Z,9.30
2018-11-04T03:15:19.913Z,13.63
2018-11-04T03:17:48.521Z,13.47
2018-11-04T03:20:16.939Z,15.60
2018-11-04T03:22:45.653Z,12.90
2018-11-04T03:25:14.577Z,10.27
2018-11-04T03:27:43.066Z,19.30
2018-11-04T03:30:11.713Z,14.37
2018-11-04T03:32:40.515Z,14.27
2018-11-04T03:35:09.407Z,11.10
2018-11-04T03:37:38.223Z,23.00
2018-11-04T03:40:09.267Z,13.73
2018-11-04T03:42:37.923Z,16.70
2018-11-04T03:45:07.042Z,15.00
2018-11-04T03:47:35.644Z,6.53
2018-11-04T03:50:04.275Z,11.33
2018-11-04T03:52:33.245Z,9.67
2018-11-04T03:55:02.276Z,5.80
2018-11-04T03:57:30.615Z,4.67
2018-11-04T03:59:59.455Z,16.03
2018-11-04T04:02:27.949Z,16.83
2018-11-04T04:04:56.313Z,10.50
2018-11-04T04:07:25.515Z,13.67
2018-11-04T04:09:54.282Z,16.77
2018-11-04T04:12:22.617Z,22.30
2018-11-04T04:14:51.565Z,8.70
2018-11-04T04:17:20.380Z,14.97
2018-11-04T04:19:48.852Z,13.50
2018-11-04T04:22:17.777Z,13.17
2018-11-04T04:24:46.590Z,11.70
2018-11-04T04:27:14.909Z,6.83
2018-11-04T04:29:43.890Z,19.90
2018-11-04T04:32:12.456Z,20.70
2018-11-04T04:34:40.769Z,17.93
2018-11-04T04:37:09.273Z,7.50
2018-11-04T04:39:38.039Z,8.00
2018-11-04T04:42:06.633Z,12.00
2018-11-04T04:44:35.340Z,9.10
2018-11-04T04:47:04.077Z,12.23
2018-11-04T04:49:32.436Z,19.57
2018-11-04T04:52:01.528Z,13.93
2018-11-04T04:54:30.489Z,15.77
2018-11-04T04:56:59.429Z,6.77
2018-11-04T04:59:28.042Z,10.40
2018-11-04T05:01:56.633Z,13.43
2018-11-04T05:04:24.971Z,21.13
2018-11-04T05:06:53.792Z,15.43
2018-11-04T05:09:22.429Z,14.00
2018-11-04T05:11:50.821Z,15.17
2018-11-04T05:14:19.852Z,13.13
2018-11-04T05:16:48.633Z,19.83
2018-11-04T05:19:16.998Z,12.67
2018-11-04T05:21:45.745Z,15.07
2018-11-04T05:24:14.197Z,17.00
2018-11-04T05:26:42.987Z,11.17
2018-11-04T05:29:11.644Z,14.00
2018-11-04T05:31:40.275Z,15.73
2018-11-04T05:34:08.863Z,14.13
2018-11-04T05:36:37.708Z,13.57
2018-11-04T05:39:09.272Z,14.03
2018-11-04T05:41:38.471Z,14.73
2018-11-04T05:44:07.085Z,9.87
2018-11-04T05:46:35.870Z,9.03
2018-11-04T05:49:04.966Z,16.47
2018-11-04T05:51:33.348Z,16.77
2018-11-04T05:54:02.216Z,9.97
2018-11-04T05:56:30.882Z,12.70
2018-11-04T05:58:59.194Z,10.40
2018-11-04T06:01:28.163Z,11.97
2018-11-04T06:03:56.766Z,12.53
2018-11-04T06:06:25.055Z,11.20
2018-11-04T06:08:54.020Z,15.33
2018-11-04T06:11:22.681Z,13.97
2018-11-04T06:13:51.508Z,11.00
2018-11-04T06:16:20.710Z,9.50
2018-11-04T06:18:49.361Z,17.03
2018-11-04T06:21:18.031Z,16.63
2018-11-04T06:23:47.009Z,11.27
2018-11-04T06:26:15.851Z,16.40
2018-11-04T06:28:44.161Z,12.77
2018-11-04T06:31:13.126Z,18.17
2018-11-04T06:33:41.742Z,14.07
2018-11-04T06:36:10.229Z,6.73
2018-11-04T06:38:39.154Z,14.57
2018-11-04T06:41:07.876Z,11.90
2018-11-04T06:43:36.258Z,9.33
2018-11-04T06:46:05.409Z,10.57
2018-11-04T06:48:33.861Z,16.23
2018-11-04T06:51:02.698Z,8.20
2018-11-04T06:53:31.485Z,13.80
2018-11-04T06:56:00.378Z,11.47
2018-11-04T06:58:29.296Z,9.60
2018-11-04T07:00:57.840Z,13.43
2018-11-04T07:03:26.580Z,7.83
2018-11-04T07:05:55.308Z,11.57
2018-11-04T07:08:24.140Z,11.60
2018-11-04T07:10:52.747Z,9.73
2018-11-04T07:13:21.370Z,13.13
2018-11-04T07:15:49.945Z,15.23
2018-11-04T07:18:19.158Z,10.87
2018-11-04T07:20:47.713Z,10.90
2018-11-04T07:23:16.292Z,10.50
2018-11-04T07:25:45.297Z,5.50
2018-11-04T07:28:13.566Z,11.17
2018-11-04T07:30:42.596Z,6.83
2018-11-04T07:33:11.570Z,7.93
2018-11-04T07:35:40.072Z,9.90
2018-11-04T07:38:09.010Z,13.27
2018-11-04T07:40:37.918Z,14.63
2018-11-04T07:43:06.520Z,12.13
2018-11-04T07:45:35.484Z,14.20
2018-11-04T07:48:04.293Z,9.43
2018-11-04T07:50:32.664Z,10.10
2018-11-04T07:53:01.728Z,4.17
2018-11-04T07:55:30.344Z,13.57
2018-11-04T07:57:58.832Z,4.97
2018-11-04T08:00:28.028Z,9.40
2018-11-04T08:02:56.561Z,8.93
2018-11-04T08:05:24.849Z,17.53
2018-11-04T08:07:53.771Z,11.83
2018-11-04T08:10:22.761Z,8.67
2018-11-04T08:12:51.294Z,9.47
2018-11-04T08:15:20.440Z,8.37
2018-11-04T08:17:49.343Z,10.57
2018-11-04T08:20:17.720Z,7.27
2018-11-04T08:22:46.690Z,8.37
2018-11-04T08:25:15.486Z,8.27
2018-11-04T08:27:43.904Z,9.83
2018-11-04T08:30:12.671Z,7.47
2018-11-04T08:32:41.109Z,18.80
2018-11-04T08:35:09.513Z,11.83
2018-11-04T08:37:38.168Z,6.73
2018-11-04T08:40:06.937Z,9.20
2018-11-04T08:42:35.513Z,9.17
2018-11-04T08:45:04.472Z,11.90
2018-11-04T08:47:32.783Z,3.17
2018-11-04T08:50:01.579Z,8.47
2018-11-04T08:52:30.483Z,13.07
2018-11-04T08:54:58.793Z,5.70
2018-11-04T08:57:27.637Z,5.53
2018-11-04T08:59:56.429Z,4.53
2018-11-04T09:02:24.803Z,7.57
2018-11-04T09:04:53.419Z,4.70
2018-11-04T09:07:22.147Z,7.13
2018-11-04T09:09:50.601Z,4.37
2018-11-04T09:12:19.419Z,3.83
2018-11-04T09:14:48.033Z,2.30
2018-11-04T09:17:16.544Z,3.93
2018-11-04T09:19:45.630Z,6.60
2018-11-04T09:22:14.337Z,5.43
2018-11-04T09:24:43.001Z,5.77
2018-11-04T09:27:11.685Z,6.03
2018-11-04T09:29:40.821Z,2.83
2018-11-04T09:32:09.324Z,2.50
2018-11-04T09:34:38.096Z,5.57
2018-11-04T09:37:06.984Z,2.33
2018-11-04T09:39:35.325Z,2.20
2018-11-04T09:42:04.247Z,3.83
2018-11-04T09:44:33.275Z,3.37
2018-11-04T09:47:01.622Z,4.73
2018-11-04T09:49:30.461Z,3.67
2018-11-04T09:51:59.064Z,4.60
2018-11-04T09:54:27.356Z,4.17
2018-11-04T09:56:56.057Z,2.40
2018-11-04T09:59:25.199Z,5.30
2018-11-04T10:01:53.526Z,2.67
2018-11-04T10:04:22.573Z,4.30
2018-11-04T10:06:51.608Z,1.23
2018-11-04T10:09:20.209Z,3.47
2018-11-04T10:11:48.930Z,3.57
2018-11-04T10:14:17.997Z,5.37
2018-11-04T10:16:46.364Z,3.30
2018-11-04T10:19:15.457Z,3.77
2018-11-04T10:21:43.701Z,9.13
2018-11-04T10:24:12.015Z,4.33
2018-11-04T10:26:40.736Z,4.07
2018-11-04T10:29:09.306Z,1.07
2018-11-04T10:31:37.909Z,2.40
2018-11-04T10:34:06.318Z,6.57
2018-11-04T10:36:35.285Z,2.93
2018-11-04T10:39:05.148Z,2.37
2018-11-04T10:41:33.762Z,3.17
2018-11-04T10:44:02.953Z,6.87
2018-11-04T10:46:31.618Z,3.07
2018-11-04T10:49:00.268Z,1.63
2018-11-04T10:51:28.907Z,5.97
2018-11-04T10:53:57.281Z,4.87
2018-11-04T10:56:25.921Z,4.33
2018-11-04T10:58:54.824Z,10.97
2018-11-04T11:01:23.149Z,5.70
2018-11-04T11:03:52.081Z,3.13
2018-11-04T11:06:21.084Z,3.07
2018-11-04T11:08:49.968Z,8.13
2018-11-04T11:11:18.792Z,2.33
2018-11-04T11:13:47.379Z,3.20
2018-11-04T11:16:15.903Z,3.10
2018-11-04T11:18:45.148Z,5.47
2018-11-04T11:21:13.910Z,1.70
2018-11-04T11:23:42.277Z,3.00
2018-11-04T11:26:11.479Z,1.73
2018-11-04T11:28:40.238Z,4.20
2018-11-04T11:31:08.534Z,7.17
2018-11-04T11:33:37.369Z,3.30
2018-11-04T11:36:06.327Z,4.13
2018-11-04T11:38:34.699Z,8.53
2018-11-04T11:41:03.427Z,3.83
2018-11-04T11:43:32.175Z,3.70
2018-11-04T11:46:00.502Z,1.77
2018-11-04T11:48:29.382Z,3.40
2018-11-04T11:50:58.117Z,2.07
2018-11-04T11:53:26.422Z,3.50
2018-11-04T11:55:55.226Z,2.03
2018-11-04T11:58:23.851Z,8.50
2018-11-04T12:00:52.288Z,6.70
2018-11-04T12:03:21.752Z,3.67
2018-11-04T12:05:50.510Z,6.20
2018-11-04T12:08:19.028Z,3.93
2018-11-04T12:10:47.487Z,6.30
2018-11-04T12:13:16.263Z,5.40
2018-11-04T12:15:45.319Z,2.13
2018-11-04T12:18:14.161Z,4.07
2018-11-04T12:20:42.914Z,4.20
2018-11-04T12:23:11.271Z,7.90
2018-11-04T12:25:39.925Z,4.40
2018-11-04T12:28:08.941Z,4.27
2018-11-04T12:30:37.369Z,1.60
2018-11-04T12:33:05.965Z,6.03
2018-11-04T12:35:34.695Z,2.40
2018-11-04T12:38:03.085Z,4.40
2018-11-04T12:40:31.699Z,1.97
2018-11-04T12:43:00.504Z,3.57
2018-11-04T12:45:28.844Z,8.43
2018-11-04T12:47:58.061Z,5.60
2018-11-04T12:50:27.017Z,3.17
2018-11-04T12:52:55.309Z,3.30
2018-11-04T12:55:24.120Z,4.17
2018-11-04T12:57:53.082Z,3.27
2018-11-04T13:00:21.385Z,4.13
2018-11-04T13:02:50.387Z,5.97
2018-11-04T13:05:19.086Z,1.17
2018-11-04T13:07:47.390Z,1.40
2018-11-04T13:10:16.267Z,3.63
2018-11-04T13:12:45.084Z,1.23
2018-11-04T13:15:14.614Z,2.20
2018-11-04T13:17:43.940Z,2.07
2018-11-04T13:20:12.700Z,2.20
2018-11-04T13:22:41.242Z,3.07
2018-11-04T13:25:10.366Z,4.10
2018-11-04T13:27:39.279Z,7.00
2018-11-04T13:30:09.321Z,1.23
2018-11-04T13:32:38.076Z,2.27
2018-11-04T13:35:06.993Z,3.17
2018-11-04T13:37:35.430Z,1.67
2018-11-04T13:40:04.655Z,3.23
2018-11-04T13:42:33.528Z,1.40
2018-11-04T13:45:01.830Z,1.83
2018-11-04T13:47:30.478Z,2.90
2018-11-04T13:49:59.389Z,1.17
2018-11-04T13:52:27.777Z,2.10
2018-11-04T13:54:56.239Z,3.00
2018-11-04T13:57:25.069Z,2.13
2018-11-04T13:59:53.425Z,3.13
2018-11-04T14:02:22.159Z,6.77
2018-11-04T14:04:51.219Z,1.23
2018-11-04T14:07:19.498Z,2.77
2018-11-04T14:09:48.044Z,4.37
2018-11-04T14:12:17.078Z,1.93
2018-11-04T14:14:45.389Z,2.23
2018-11-04T14:17:14.250Z,1.57
2018-11-04T14:19:43.460Z,3.53
2018-11-04T14:22:11.806Z,4.50
2018-11-04T14:24:40.451Z,2.40
2018-11-04T14:27:09.217Z,6.03
2018-11-04T14:29:37.523Z,8.97
2018-11-04T14:32:06.669Z,4.03
2018-11-04T14:34:35.554Z,6.10
2018-11-04T14:37:04.017Z,1.87
2018-11-04T14:39:32.872Z,4.57
2018-11-04T14:42:01.603Z,3.43
2018-11-04T14:44:29.943Z,1.47
2018-11-04T14:46:58.942Z,5.07
2018-11-04T14:49:27.680Z,2.93
2018-11-04T14:51:56.157Z,5.90
2018-11-04T14:54:24.830Z,4.30
2018-11-04T14:56:54.061Z,7.97
2018-11-04T14:59:22.372Z,10.43
2018-11-04T15:01:51.289Z,6.93
2018-11-04T15:04:19.983Z,6.27
2018-11-04T15:06:48.354Z,2.33
2018-11-04T15:09:17.285Z,6.67
2018-11-04T15:11:45.991Z,4.57
2018-11-04T15:14:14.280Z,4.30
2018-11-04T15:16:42.837Z,4.03
2018-11-04T15:19:11.716Z,3.20
2018-11-04T15:21:40.609Z,13.00
2018-11-04T15:24:09.309Z,6.30
2018-11-04T15:26:38.204Z,3.20
2018-11-04T15:29:06.704Z,5.33
2018-11-04T15:31:35.407Z,8.33
2018-11-04T15:34:03.945Z,7.20
2018-11-04T15:36:32.363Z,5.60
2018-11-04T15:39:01.172Z,5.90
2018-11-04T15:41:30.108Z,5.23
2018-11-04T15:43:58.940Z,7.20
2018-11-04T15:46:27.478Z,3.77
2018-11-04T15:48:56.739Z,9.67
2018-11-04T15:51:25.128Z,3.70
2018-11-04T15:53:53.729Z,5.10
2018-11-04T15:56:22.763Z,3.93
2018-11-04T15:58:51.489Z,7.90
2018-11-04T16:01:20.400Z,3.57
2018-11-04T16:03:49.106Z,3.93
2018-11-04T16:06:17.499Z,9.73
2018-11-04T16:08:46.292Z,8.13
2018-11-04T16:11:15.518Z,4.90
2018-11-04T16:13:43.914Z,10.40
2018-11-04T16:16:12.500Z,7.33
2018-11-04T16:18:41.592Z,10.23
2018-11-04T16:21:09.885Z,6.93
2018-11-04T16:23:38.556Z,7.40
2018-11-04T16:26:07.588Z,3.63
2018-11-04T16:28:35.884Z,8.47
2018-11-04T16:31:04.762Z,9.47
2018-11-04T16:33:33.244Z,7.43
2018-11-04T16:36:02.317Z,6.80
2018-11-04T16:38:31.284Z,7.37
2018-11-04T16:41:00.228Z,10.27
2018-11-04T16:43:29.079Z,10.33
2018-11-04T16:45:57.944Z,7.60
2018-11-04T16:48:26.879Z,8.33
2018-11-04T16:50:55.457Z,11.23
2018-11-04T16:53:24.768Z,7.17
2018-11-04T16:55:53.617Z,10.60
2018-11-04T16:58:22.397Z,14.20
2018-11-04T17:00:51.129Z,8.23
2018-11-04T17:03:19.816Z,10.40
2018-11-04T17:05:48.386Z,11.33
2018-11-04T17:08:17.026Z,12.83
2018-11-04T17:10:46.106Z,5.23
2018-11-04T17:13:14.524Z,6.67
2018-11-04T17:15:43.093Z,4.23
2018-11-04T17:18:12.315Z,5.97
2018-11-04T17:20:40.721Z,7.83
2018-11-04T17:23:09.462Z,5.50
2018-11-04T17:25:38.780Z,9.37
2018-11-04T17:28:07.105Z,2.57
2018-11-04T17:30:35.963Z,8.93
2018-11-04T17:33:04.752Z,9.27
2018-11-04T17:35:33.087Z,7.67
2018-11-04T17:38:01.529Z,4.73
2018-11-04T17:40:30.530Z,4.83
2018-11-04T17:42:58.837Z,11.90
2018-11-04T17:45:27.791Z,9.60
2018-11-04T17:47:56.758Z,6.17
2018-11-04T17:50:25.441Z,5.80
2018-11-04T17:52:54.285Z,7.20
2018-11-04T17:55:23.189Z,13.07
2018-11-04T17:57:51.806Z,6.20
2018-11-04T18:00:20.826Z,4.70
2018-11-04T18:02:49.709Z,8.33
2018-11-04T18:05:18.167Z,9.73
2018-11-04T18:07:46.744Z,7.07
2018-11-04T18:10:16.009Z,8.83
2018-11-04T18:12:44.833Z,4.50
2018-11-04T18:15:14.438Z,5.97
2018-11-04T18:17:43.348Z,7.63
2018-11-04T18:20:12.423Z,10.47
2018-11-04T18:22:41.726Z,9.37
2018-11-04T18:25:11.053Z,7.30
2018-11-04T18:27:39.401Z,12.90
2018-11-04T18:30:10.384Z,7.17
2018-11-04T18:32:39.174Z,6.97
2018-11-04T18:35:07.701Z,6.10
2018-11-04T18:37:36.454Z,14.07
2018-11-04T18:40:06.293Z,9.40
2018-11-04T18:42:34.600Z,7.37
2018-11-04T18:45:03.721Z,3.83
2018-11-04T18:47:32.523Z,6.77
2018-11-04T18:50:00.841Z,6.63
2018-11-04T18:52:29.918Z,11.07
2018-11-04T18:54:58.565Z,6.03
2018-11-04T18:57:26.873Z,8.17
2018-11-04T18:59:55.519Z,5.83
2018-11-04T19:02:24.353Z,16.07
2018-11-04T19:04:53.544Z,9.23
2018-11-04T19:07:22.353Z,13.90
2018-11-04T19:09:51.180Z,4.77
2018-11-04T19:12:20.183Z,10.77
2018-11-04T19:14:49.018Z,5.43
2018-11-04T19:17:18.286Z,7.07
2018-11-04T19:19:47.235Z,7.80
2018-11-04T19:22:16.144Z,11.93
2018-11-04T19:24:45.126Z,6.53
2018-11-04T19:27:13.485Z,18.27
2018-11-04T19:29:42.356Z,19.37
2018-11-04T19:32:11.415Z,7.37
2018-11-04T19:34:39.888Z,12.27
2018-11-04T19:37:08.660Z,15.83
2018-11-04T19:39:37.513Z,18.60
2018-11-04T19:42:05.888Z,14.70
2018-11-04T19:44:34.773Z,13.37
2018-11-04T19:47:03.297Z,9.77
2018-11-04T19:49:31.671Z,13.50
2018-11-04T19:52:00.826Z,12.03
2018-11-04T19:54:29.462Z,11.30
2018-11-04T19:56:58.233Z,12.10
2018-11-04T19:59:27.493Z,12.80
2018-11-04T20:01:56.266Z,21.07
2018-11-04T20:04:24.815Z,8.00
2018-11-04T20:06:53.719Z,16.77
2018-11-04T20:09:22.494Z,18.40
2018-11-04T20:11:51.088Z,17.63
2018-11-04T20:14:21.716Z,13.57
2018-11-04T20:16:51.111Z,11.80
2018-11-04T20:19:25.207Z,17.87
2018-11-04T20:21:54.536Z,14.30
2018-11-04T20:24:28.660Z,19.63
2018-11-04T20:26:57.431Z,12.10
2018-11-04T20:29:25.849Z,13.63
2018-11-04T20:32:00.980Z,15.23
2018-11-04T20:34:29.742Z,13.90
2018-11-04T20:36:58.421Z,17.07
2018-11-04T20:39:32.872Z,10.10
2018-11-04T20:42:01.641Z,11.40
2018-11-04T20:44:30.241Z,17.73
2018-11-04T20:46:59.472Z,16.53
2018-11-04T20:49:33.201Z,8.77
2018-11-04T20:52:02.704Z,11.77
2018-11-04T20:54:31.069Z,21.40
2018-11-04T20:57:05.190Z,16.20
2018-11-04T20:59:33.811Z,10.47
2018-11-04T21:02:02.220Z,26.30
2018-11-04T21:04:30.923Z,23.90
2018-11-04T21:06:59.700Z,19.73
2018-11-04T21:09:28.200Z,17.87
2018-11-04T21:11:56.975Z,15.77
2018-11-04T21:14:25.843Z,16.20
2018-11-04T21:16:54.146Z,17.80
2018-11-04T21:19:23.189Z,22.90
2018-11-04T21:21:52.158Z,12.47
2018-11-04T21:24:20.519Z,16.27
2018-11-04T21:26:49.551Z,16.23
2018-11-04T21:29:18.176Z,13.53
2018-11-04T21:31:46.460Z,18.67
2018-11-04T21:34:15.468Z,19.47
2018-11-04T21:36:44.292Z,11.27
2018-11-04T21:39:13.104Z,24.00
2018-11-04T21:41:42.274Z,15.50
2018-11-04T21:44:12.340Z,25.10
2018-11-04T21:46:40.777Z,21.73
2018-11-04T21:49:09.560Z,26.63
2018-11-04T21:51:38.488Z,26.40
2018-11-04T21:54:06.847Z,24.80
2018-11-04T21:56:35.578Z,20.27
2018-11-04T21:59:04.436Z,21.57
2018-11-04T22:01:32.930Z,19.90
2018-11-04T22:04:01.791Z,36.57
2018-11-04T22:06:30.352Z,14.40
2018-11-04T22:08:58.869Z,17.90
2018-11-04T22:11:27.560Z,21.13
2018-11-04T22:13:56.871Z,28.93
2018-11-04T22:16:25.076Z,32.50
2018-11-04T22:18:53.986Z,11.77
2018-11-04T22:21:22.564Z,28.57
2018-11-04T22:23:51.013Z,20.10
2018-11-04T22:26:19.830Z,22.73
2018-11-04T22:28:48.622Z,22.70
2018-11-04T22:31:16.933Z,15.20
2018-11-04T22:33:45.735Z,25.20
2018-11-04T22:36:14.387Z,18.83
2018-11-04T22:38:42.730Z,24.63
2018-11-04T22:41:11.631Z,16.23
2018-11-04T22:43:40.563Z,17.47
2018-11-04T22:46:08.870Z,17.53
2018-11-04T22:48:37.690Z,24.93
2018-11-04T22:51:06.753Z,14.63
2018-11-04T22:53:35.057Z,11.77
2018-11-04T22:56:03.967Z,22.43
2018-11-04T22:58:32.492Z,19.47
2018-11-04T23:01:01.916Z,22.73
2018-11-04T23:03:30.715Z,18.23
2018-11-04T23:06:04.550Z,20.10
2018-11-04T23:08:33.259Z,20.37
2018-11-04T23:11:01.791Z,14.43
2018-11-04T23:13:30.488Z,16.03
2018-11-04T23:15:59.671Z,27.10
2018-11-04T23:18:27.992Z,15.67
2018-11-04T23:20:56.776Z,11.87
2018-11-04T23:23:25.725Z,9.63
2018-11-04T23:25:54.300Z,16.87
2018-11-04T23:28:23.050Z,16.13
2018-11-04T23:30:51.777Z,15.83
2018-11-04T23:33:20.421Z,17.63
2018-11-04T23:35:49.549Z,14.37
2018-11-04T23:38:18.429Z,11.17
2018-11-04T23:40:47.082Z,13.57
2018-11-04T23:43:15.593Z,11.00
2018-11-04T23:45:44.034Z,6.27
2018-11-04T23:48:13.034Z,16.57
2018-11-04T23:50:41.830Z,10.27
2018-11-04T23:53:10.557Z,14.53
2018-11-04T23:55:39.128Z,11.47
2018-11-04T23:58:09.773Z,13.50
